sensor_id;sensor_type;location;lat;lon;timestamp;P1;durP1;ratioP1;P2;durP2;ratioP2
75071;SDS011;63651;55.728;38.022;2023-05-20T00:03:26;1.40;;;0.70;;
75071;SDS011;63651;55.728;38.022;2023-05-20T00:08:29;1.92;;;0.70;;
75071;SDS011;63651;55.728;38.022;2023-05-20T00:13:30;1.60;;;0.60;;
75071;SDS011;63651;55.728;38.022;2023-05-20T00:18:31;0.70;;;0.50;;
75071;SDS011;63651;55.728;38.022;2023-05-20T00:23:32;0.70;;;0.45;;
75071;SDS011;63651;55.728;38.022;2023-05-20T00:28:33;2.45;;;0.60;;
75071;SDS011;63651;55.728;38.022;2023-05-20T00:33:34;1.38;;;0.80;;
75071;SDS011;63651;55.728;38.022;2023-05-20T00:38:36;3.08;;;0.80;;
75071;SDS011;63651;55.728;38.022;2023-05-20T00:43:37;1.30;;;0.85;;
75071;SDS011;63651;55.728;38.022;2023-05-20T00:48:42;0.80;;;0.40;;
75071;SDS011;63651;55.728;38.022;2023-05-20T00:53:43;1.77;;;0.40;;
75071;SDS011;63651;55.728;38.022;2023-05-20T00:58:45;0.70;;;0.52;;
75071;SDS011;63651;55.728;38.022;2023-05-20T01:03:47;1.20;;;0.40;;
75071;SDS011;63651;55.728;38.022;2023-05-20T01:08:48;2.15;;;1.05;;
75071;SDS011;63651;55.728;38.022;2023-05-20T01:13:51;1.08;;;0.60;;
75071;SDS011;63651;55.728;38.022;2023-05-20T01:18:55;0.85;;;0.47;;
75071;SDS011;63651;55.728;38.022;2023-05-20T01:23:58;1.48;;;0.90;;
75071;SDS011;63651;55.728;38.022;2023-05-20T01:29:01;2.08;;;0.52;;
75071;SDS011;63651;55.728;38.022;2023-05-20T01:34:04;1.30;;;0.60;;
75071;SDS011;63651;55.728;38.022;2023-05-20T01:39:06;2.30;;;0.45;;
75071;SDS011;63651;55.728;38.022;2023-05-20T01:44:07;0.80;;;0.30;;
75071;SDS011;63651;55.728;38.022;2023-05-20T01:49:09;0.82;;;0.40;;
75071;SDS011;63651;55.728;38.022;2023-05-20T01:54:10;0.95;;;0.80;;
75071;SDS011;63651;55.728;38.022;2023-05-20T01:59:11;0.60;;;0.40;;
75071;SDS011;63651;55.728;38.022;2023-05-20T02:04:13;0.88;;;0.50;;
75071;SDS011;63651;55.728;38.022;2023-05-20T02:09:14;0.80;;;0.50;;
75071;SDS011;63651;55.728;38.022;2023-05-20T02:14:15;0.63;;;0.28;;
75071;SDS011;63651;55.728;38.022;2023-05-20T02:19:16;0.90;;;0.50;;
75071;SDS011;63651;55.728;38.022;2023-05-20T02:24:22;1.08;;;0.30;;
75071;SDS011;63651;55.728;38.022;2023-05-20T02:29:24;0.75;;;0.50;;
75071;SDS011;63651;55.728;38.022;2023-05-20T02:34:26;0.80;;;0.40;;
75071;SDS011;63651;55.728;38.022;2023-05-20T02:39:27;1.48;;;0.30;;
75071;SDS011;63651;55.728;38.022;2023-05-20T02:44:28;0.95;;;0.47;;
75071;SDS011;63651;55.728;38.022;2023-05-20T02:49:29;1.23;;;0.40;;
75071;SDS011;63651;55.728;38.022;2023-05-20T02:54:30;0.80;;;0.43;;
75071;SDS011;63651;55.728;38.022;2023-05-20T02:59:32;0.65;;;0.43;;
75071;SDS011;63651;55.728;38.022;2023-05-20T03:04:33;1.33;;;0.40;;
75071;SDS011;63651;55.728;38.022;2023-05-20T03:09:37;0.60;;;0.38;;
75071;SDS011;63651;55.728;38.022;2023-05-20T03:14:39;0.70;;;0.40;;
75071;SDS011;63651;55.728;38.022;2023-05-20T03:19:40;0.60;;;0.40;;
75071;SDS011;63651;55.728;38.022;2023-05-20T03:24:41;1.50;;;0.47;;
75071;SDS011;63651;55.728;38.022;2023-05-20T03:29:43;0.70;;;0.40;;
75071;SDS011;63651;55.728;38.022;2023-05-20T03:34:44;0.70;;;0.40;;
75071;SDS011;63651;55.728;38.022;2023-05-20T03:39:46;0.60;;;0.47;;
75071;SDS011;63651;55.728;38.022;2023-05-20T03:44:47;1.13;;;0.40;;
75071;SDS011;63651;55.728;38.022;2023-05-20T03:49:48;1.67;;;0.40;;
75071;SDS011;63651;55.728;38.022;2023-05-20T03:54:49;1.70;;;0.50;;
75071;SDS011;63651;55.728;38.022;2023-05-20T03:59:50;1.02;;;0.50;;
75071;SDS011;63651;55.728;38.022;2023-05-20T04:04:51;1.30;;;0.70;;
75071;SDS011;63651;55.728;38.022;2023-05-20T04:09:52;0.88;;;0.47;;
75071;SDS011;63651;55.728;38.022;2023-05-20T04:14:53;0.88;;;0.80;;
75071;SDS011;63651;55.728;38.022;2023-05-20T04:19:55;0.93;;;0.70;;
75071;SDS011;63651;55.728;38.022;2023-05-20T04:24:59;1.92;;;0.73;;
75071;SDS011;63651;55.728;38.022;2023-05-20T04:30:03;2.45;;;1.17;;
75071;SDS011;63651;55.728;38.022;2023-05-20T04:35:06;2.00;;;0.65;;
75071;SDS011;63651;55.728;38.022;2023-05-20T04:40:11;1.40;;;0.60;;
75071;SDS011;63651;55.728;38.022;2023-05-20T04:45:13;2.17;;;0.65;;
75071;SDS011;63651;55.728;38.022;2023-05-20T04:50:14;1.58;;;0.82;;
75071;SDS011;63651;55.728;38.022;2023-05-20T04:55:15;1.52;;;0.77;;
75071;SDS011;63651;55.728;38.022;2023-05-20T05:00:16;1.92;;;0.50;;
75071;SDS011;63651;55.728;38.022;2023-05-20T05:05:17;0.70;;;0.40;;
75071;SDS011;63651;55.728;38.022;2023-05-20T05:10:18;0.88;;;0.45;;
75071;SDS011;63651;55.728;38.022;2023-05-20T05:15:21;3.20;;;0.90;;
75071;SDS011;63651;55.728;38.022;2023-05-20T05:20:22;1.70;;;0.80;;
75071;SDS011;63651;55.728;38.022;2023-05-20T05:25:23;1.40;;;0.60;;
75071;SDS011;63651;55.728;38.022;2023-05-20T05:30:24;0.85;;;0.40;;
75071;SDS011;63651;55.728;38.022;2023-05-20T05:35:26;1.40;;;0.50;;
75071;SDS011;63651;55.728;38.022;2023-05-20T05:40:27;1.20;;;0.50;;
75071;SDS011;63651;55.728;38.022;2023-05-20T05:45:28;1.08;;;0.55;;
75071;SDS011;63651;55.728;38.022;2023-05-20T05:50:29;1.58;;;0.43;;
75071;SDS011;63651;55.728;38.022;2023-05-20T05:55:30;1.83;;;0.65;;
75071;SDS011;63651;55.728;38.022;2023-05-20T06:00:31;2.58;;;0.77;;
75071;SDS011;63651;55.728;38.022;2023-05-20T06:05:32;1.13;;;0.50;;
75071;SDS011;63651;55.728;38.022;2023-05-20T06:10:34;1.20;;;0.70;;
75071;SDS011;63651;55.728;38.022;2023-05-20T06:15:35;1.10;;;0.68;;
75071;SDS011;63651;55.728;38.022;2023-05-20T06:20:36;1.50;;;0.63;;
75071;SDS011;63651;55.728;38.022;2023-05-20T06:25:37;0.90;;;0.40;;
75071;SDS011;63651;55.728;38.022;2023-05-20T06:30:39;1.65;;;0.40;;
75071;SDS011;63651;55.728;38.022;2023-05-20T06:35:41;0.90;;;0.40;;
75071;SDS011;63651;55.728;38.022;2023-05-20T06:40:42;2.40;;;0.50;;
75071;SDS011;63651;55.728;38.022;2023-05-20T06:45:44;1.27;;;0.70;;
75071;SDS011;63651;55.728;38.022;2023-05-20T06:50:45;1.25;;;0.90;;
75071;SDS011;63651;55.728;38.022;2023-05-20T06:55:47;1.73;;;0.60;;
75071;SDS011;63651;55.728;38.022;2023-05-20T07:00:48;1.00;;;0.70;;
75071;SDS011;63651;55.728;38.022;2023-05-20T07:05:49;0.80;;;0.45;;
75071;SDS011;63651;55.728;38.022;2023-05-20T07:10:51;1.88;;;0.60;;
75071;SDS011;63651;55.728;38.022;2023-05-20T07:15:54;1.42;;;0.57;;
75071;SDS011;63651;55.728;38.022;2023-05-20T07:20:55;1.33;;;0.50;;
75071;SDS011;63651;55.728;38.022;2023-05-20T07:25:57;1.00;;;0.60;;
75071;SDS011;63651;55.728;38.022;2023-05-20T07:30:58;1.50;;;0.60;;
75071;SDS011;63651;55.728;38.022;2023-05-20T07:35:59;0.63;;;0.50;;
75071;SDS011;63651;55.728;38.022;2023-05-20T07:41:01;1.55;;;0.65;;
75071;SDS011;63651;55.728;38.022;2023-05-20T07:46:02;0.73;;;0.68;;
75071;SDS011;63651;55.728;38.022;2023-05-20T07:51:03;2.45;;;0.55;;
75071;SDS011;63651;55.728;38.022;2023-05-20T07:56:04;1.67;;;0.88;;
75071;SDS011;63651;55.728;38.022;2023-05-20T08:01:06;1.13;;;0.80;;
75071;SDS011;63651;55.728;38.022;2023-05-20T08:06:08;2.08;;;0.70;;
75071;SDS011;63651;55.728;38.022;2023-05-20T08:11:10;1.65;;;0.80;;
75071;SDS011;63651;55.728;38.022;2023-05-20T08:16:11;1.52;;;1.23;;
75071;SDS011;63651;55.728;38.022;2023-05-20T08:21:12;1.48;;;1.00;;
75071;SDS011;63651;55.728;38.022;2023-05-20T08:26:16;2.30;;;0.95;;
75071;SDS011;63651;55.728;38.022;2023-05-20T08:31:17;3.42;;;0.98;;
75071;SDS011;63651;55.728;38.022;2023-05-20T08:36:19;1.45;;;1.08;;
75071;SDS011;63651;55.728;38.022;2023-05-20T08:41:20;1.35;;;0.70;;
75071;SDS011;63651;55.728;38.022;2023-05-20T08:46:22;2.08;;;1.00;;
75071;SDS011;63651;55.728;38.022;2023-05-20T08:51:23;3.25;;;0.70;;
75071;SDS011;63651;55.728;38.022;2023-05-20T08:56:26;2.10;;;1.00;;
75071;SDS011;63651;55.728;38.022;2023-05-20T09:01:28;1.75;;;1.20;;
75071;SDS011;63651;55.728;38.022;2023-05-20T09:06:29;1.55;;;0.73;;
75071;SDS011;63651;55.728;38.022;2023-05-20T09:11:43;1.40;;;1.00;;
75071;SDS011;63651;55.728;38.022;2023-05-20T09:16:44;2.45;;;1.00;;
75071;SDS011;63651;55.728;38.022;2023-05-20T09:21:45;1.35;;;0.82;;
75071;SDS011;63651;55.728;38.022;2023-05-20T09:26:47;1.00;;;0.90;;
75071;SDS011;63651;55.728;38.022;2023-05-20T09:31:48;1.50;;;0.93;;
75071;SDS011;63651;55.728;38.022;2023-05-20T09:36:50;1.30;;;0.90;;
75071;SDS011;63651;55.728;38.022;2023-05-20T09:42:06;2.38;;;0.77;;
75071;SDS011;63651;55.728;38.022;2023-05-20T09:47:15;1.65;;;0.90;;
75071;SDS011;63651;55.728;38.022;2023-05-20T09:52:17;3.10;;;1.13;;
75071;SDS011;63651;55.728;38.022;2023-05-20T09:57:19;2.83;;;0.90;;
75071;SDS011;63651;55.728;38.022;2023-05-20T10:02:20;2.33;;;0.93;;
75071;SDS011;63651;55.728;38.022;2023-05-20T10:13:21;2.90;;;0.95;;
75071;SDS011;63651;55.728;38.022;2023-05-20T10:18:57;1.70;;;0.82;;
75071;SDS011;63651;55.728;38.022;2023-05-20T10:24:27;1.65;;;0.80;;
75071;SDS011;63651;55.728;38.022;2023-05-20T10:29:43;1.63;;;1.08;;
75071;SDS011;63651;55.728;38.022;2023-05-20T10:34:46;1.80;;;1.10;;
75071;SDS011;63651;55.728;38.022;2023-05-20T10:39:49;1.67;;;0.90;;
75071;SDS011;63651;55.728;38.022;2023-05-20T10:44:50;1.45;;;1.27;;
75071;SDS011;63651;55.728;38.022;2023-05-20T10:49:51;1.17;;;0.85;;
75071;SDS011;63651;55.728;38.022;2023-05-20T10:59:54;1.60;;;1.00;;
75071;SDS011;63651;55.728;38.022;2023-05-20T11:04:55;1.33;;;0.82;;
75071;SDS011;63651;55.728;38.022;2023-05-20T11:10:00;2.25;;;1.08;;
75071;SDS011;63651;55.728;38.022;2023-05-20T11:15:01;1.17;;;1.00;;
75071;SDS011;63651;55.728;38.022;2023-05-20T11:20:03;4.40;;;1.25;;
75071;SDS011;63651;55.728;38.022;2023-05-20T11:25:05;1.35;;;1.13;;
75071;SDS011;63651;55.728;38.022;2023-05-20T11:30:07;2.75;;;1.40;;
75071;SDS011;63651;55.728;38.022;2023-05-20T11:35:18;1.92;;;1.25;;
75071;SDS011;63651;55.728;38.022;2023-05-20T11:40:24;3.10;;;1.20;;
75071;SDS011;63651;55.728;38.022;2023-05-20T11:45:26;2.00;;;1.30;;
75071;SDS011;63651;55.728;38.022;2023-05-20T11:50:38;2.50;;;1.23;;
75071;SDS011;63651;55.728;38.022;2023-05-20T11:55:47;1.55;;;1.23;;
75071;SDS011;63651;55.728;38.022;2023-05-20T12:00:48;4.03;;;1.70;;
75071;SDS011;63651;55.728;38.022;2023-05-20T12:05:50;2.45;;;1.45;;
75071;SDS011;63651;55.728;38.022;2023-05-20T12:10:52;14.18;;;3.97;;
75071;SDS011;63651;55.728;38.022;2023-05-20T12:15:54;11.05;;;3.50;;
75071;SDS011;63651;55.728;38.022;2023-05-20T12:20:55;10.35;;;3.08;;
75071;SDS011;63651;55.728;38.022;2023-05-20T12:25:56;5.57;;;2.92;;
75071;SDS011;63651;55.728;38.022;2023-05-20T12:30:58;5.45;;;2.55;;
75071;SDS011;63651;55.728;38.022;2023-05-20T12:35:59;5.28;;;2.47;;
75071;SDS011;63651;55.728;38.022;2023-05-20T12:41:00;6.25;;;1.90;;
75071;SDS011;63651;55.728;38.022;2023-05-20T12:46:04;5.10;;;2.50;;
75071;SDS011;63651;55.728;38.022;2023-05-20T12:51:05;5.55;;;2.00;;
75071;SDS011;63651;55.728;38.022;2023-05-20T12:56:06;4.82;;;1.95;;
75071;SDS011;63651;55.728;38.022;2023-05-20T13:01:08;3.75;;;2.08;;
75071;SDS011;63651;55.728;38.022;2023-05-20T13:06:09;4.32;;;2.00;;
75071;SDS011;63651;55.728;38.022;2023-05-20T13:11:10;3.00;;;1.80;;
75071;SDS011;63651;55.728;38.022;2023-05-20T13:16:12;3.88;;;1.45;;
75071;SDS011;63651;55.728;38.022;2023-05-20T13:21:13;2.78;;;1.27;;
75071;SDS011;63651;55.728;38.022;2023-05-20T13:26:15;2.25;;;1.48;;
75071;SDS011;63651;55.728;38.022;2023-05-20T13:31:16;4.10;;;1.92;;
75071;SDS011;63651;55.728;38.022;2023-05-20T13:36:17;4.22;;;1.55;;
75071;SDS011;63651;55.728;38.022;2023-05-20T13:41:19;3.58;;;1.85;;
75071;SDS011;63651;55.728;38.022;2023-05-20T13:46:20;4.30;;;2.22;;
75071;SDS011;63651;55.728;38.022;2023-05-20T13:51:21;4.40;;;2.63;;
75071;SDS011;63651;55.728;38.022;2023-05-20T13:56:23;4.20;;;2.50;;
75071;SDS011;63651;55.728;38.022;2023-05-20T14:01:24;4.38;;;2.33;;
75071;SDS011;63651;55.728;38.022;2023-05-20T14:06:25;5.22;;;2.35;;
75071;SDS011;63651;55.728;38.022;2023-05-20T14:11:28;4.20;;;1.95;;
75071;SDS011;63651;55.728;38.022;2023-05-20T14:16:30;3.92;;;2.47;;
75071;SDS011;63651;55.728;38.022;2023-05-20T14:21:32;2.60;;;2.00;;
75071;SDS011;63651;55.728;38.022;2023-05-20T14:26:33;3.65;;;2.72;;
75071;SDS011;63651;55.728;38.022;2023-05-20T14:31:35;4.25;;;2.45;;
75071;SDS011;63651;55.728;38.022;2023-05-20T14:36:38;2.92;;;1.95;;
75071;SDS011;63651;55.728;38.022;2023-05-20T14:41:39;3.78;;;1.85;;
75071;SDS011;63651;55.728;38.022;2023-05-20T14:46:40;2.40;;;1.63;;
75071;SDS011;63651;55.728;38.022;2023-05-20T14:51:42;5.38;;;1.77;;
75071;SDS011;63651;55.728;38.022;2023-05-20T14:56:43;3.95;;;2.13;;
75071;SDS011;63651;55.728;38.022;2023-05-20T15:01:44;10.60;;;3.13;;
75071;SDS011;63651;55.728;38.022;2023-05-20T15:06:45;3.10;;;2.15;;
75071;SDS011;63651;55.728;38.022;2023-05-20T15:11:47;6.25;;;2.33;;
75071;SDS011;63651;55.728;38.022;2023-05-20T15:16:48;3.17;;;1.90;;
75071;SDS011;63651;55.728;38.022;2023-05-20T15:21:49;5.90;;;1.98;;
75071;SDS011;63651;55.728;38.022;2023-05-20T15:26:51;3.78;;;2.20;;
75071;SDS011;63651;55.728;38.022;2023-05-20T15:31:53;5.68;;;1.85;;
75071;SDS011;63651;55.728;38.022;2023-05-20T15:36:54;3.80;;;1.65;;
75071;SDS011;63651;55.728;38.022;2023-05-20T15:41:56;4.15;;;2.22;;
75071;SDS011;63651;55.728;38.022;2023-05-20T15:46:59;4.25;;;1.83;;
75071;SDS011;63651;55.728;38.022;2023-05-20T15:52:00;4.75;;;1.83;;
75071;SDS011;63651;55.728;38.022;2023-05-20T15:57:01;3.78;;;1.70;;
75071;SDS011;63651;55.728;38.022;2023-05-20T16:02:03;3.83;;;2.00;;
75071;SDS011;63651;55.728;38.022;2023-05-20T16:07:04;4.50;;;2.00;;
75071;SDS011;63651;55.728;38.022;2023-05-20T16:12:05;4.10;;;1.77;;
75071;SDS011;63651;55.728;38.022;2023-05-20T16:17:07;2.13;;;1.65;;
75071;SDS011;63651;55.728;38.022;2023-05-20T16:22:08;3.17;;;2.20;;
75071;SDS011;63651;55.728;38.022;2023-05-20T16:27:10;3.65;;;1.98;;
75071;SDS011;63651;55.728;38.022;2023-05-20T16:32:11;4.85;;;2.55;;
75071;SDS011;63651;55.728;38.022;2023-05-20T16:37:13;2.60;;;1.77;;
75071;SDS011;63651;55.728;38.022;2023-05-20T16:42:15;4.18;;;2.13;;
75071;SDS011;63651;55.728;38.022;2023-05-20T16:47:16;2.30;;;1.95;;
75071;SDS011;63651;55.728;38.022;2023-05-20T16:52:18;3.72;;;1.65;;
75071;SDS011;63651;55.728;38.022;2023-05-20T16:57:19;2.80;;;1.60;;
75071;SDS011;63651;55.728;38.022;2023-05-20T17:02:20;2.22;;;1.48;;
75071;SDS011;63651;55.728;38.022;2023-05-20T17:07:22;3.95;;;2.00;;
75071;SDS011;63651;55.728;38.022;2023-05-20T17:12:23;2.63;;;1.83;;
75071;SDS011;63651;55.728;38.022;2023-05-20T17:17:25;2.92;;;1.88;;
75071;SDS011;63651;55.728;38.022;2023-05-20T17:22:26;4.30;;;2.03;;
75071;SDS011;63651;55.728;38.022;2023-05-20T17:27:28;2.45;;;2.25;;
75071;SDS011;63651;55.728;38.022;2023-05-20T17:32:29;3.30;;;2.50;;
75071;SDS011;63651;55.728;38.022;2023-05-20T17:37:31;3.58;;;2.40;;
75071;SDS011;63651;55.728;38.022;2023-05-20T17:42:32;5.18;;;2.60;;
75071;SDS011;63651;55.728;38.022;2023-05-20T17:47:34;3.17;;;2.00;;
75071;SDS011;63651;55.728;38.022;2023-05-20T17:52:35;2.92;;;1.95;;
75071;SDS011;63651;55.728;38.022;2023-05-20T17:57:37;3.00;;;2.35;;
75071;SDS011;63651;55.728;38.022;2023-05-20T18:02:38;3.53;;;2.33;;
75071;SDS011;63651;55.728;38.022;2023-05-20T18:07:40;4.68;;;1.98;;
75071;SDS011;63651;55.728;38.022;2023-05-20T18:12:41;3.63;;;2.22;;
75071;SDS011;63651;55.728;38.022;2023-05-20T18:17:44;2.60;;;2.00;;
75071;SDS011;63651;55.728;38.022;2023-05-20T18:22:45;2.38;;;1.83;;
75071;SDS011;63651;55.728;38.022;2023-05-20T18:27:47;2.92;;;2.10;;
75071;SDS011;63651;55.728;38.022;2023-05-20T18:32:49;3.75;;;1.55;;
75071;SDS011;63651;55.728;38.022;2023-05-20T18:37:51;2.60;;;1.75;;
75071;SDS011;63651;55.728;38.022;2023-05-20T18:42:52;3.58;;;2.28;;
75071;SDS011;63651;55.728;38.022;2023-05-20T18:47:53;5.85;;;2.40;;
75071;SDS011;63651;55.728;38.022;2023-05-20T18:52:54;3.78;;;2.20;;
75071;SDS011;63651;55.728;38.022;2023-05-20T18:57:55;4.07;;;2.42;;
75071;SDS011;63651;55.728;38.022;2023-05-20T19:02:56;4.10;;;2.40;;
75071;SDS011;63651;55.728;38.022;2023-05-20T19:07:58;4.68;;;2.47;;
75071;SDS011;63651;55.728;38.022;2023-05-20T19:13:00;4.13;;;2.78;;
75071;SDS011;63651;55.728;38.022;2023-05-20T19:18:01;3.33;;;2.83;;
75071;SDS011;63651;55.728;38.022;2023-05-20T19:23:02;4.10;;;2.92;;
75071;SDS011;63651;55.728;38.022;2023-05-20T19:28:03;3.95;;;2.83;;
75071;SDS011;63651;55.728;38.022;2023-05-20T19:33:04;4.22;;;2.60;;
75071;SDS011;63651;55.728;38.022;2023-05-20T19:38:05;3.92;;;2.58;;
75071;SDS011;63651;55.728;38.022;2023-05-20T19:43:06;3.08;;;2.47;;
75071;SDS011;63651;55.728;38.022;2023-05-20T19:48:07;3.90;;;2.40;;
75071;SDS011;63651;55.728;38.022;2023-05-20T19:53:09;4.22;;;2.35;;
75071;SDS011;63651;55.728;38.022;2023-05-20T19:58:10;4.72;;;2.80;;
75071;SDS011;63651;55.728;38.022;2023-05-20T20:03:11;3.90;;;2.20;;
75071;SDS011;63651;55.728;38.022;2023-05-20T20:08:13;3.25;;;2.17;;
75071;SDS011;63651;55.728;38.022;2023-05-20T20:13:14;3.20;;;2.30;;
75071;SDS011;63651;55.728;38.022;2023-05-20T20:18:15;3.33;;;2.38;;
75071;SDS011;63651;55.728;38.022;2023-05-20T20:23:16;2.88;;;2.22;;
75071;SDS011;63651;55.728;38.022;2023-05-20T20:28:17;3.00;;;2.40;;
75071;SDS011;63651;55.728;38.022;2023-05-20T20:33:18;3.58;;;2.53;;
75071;SDS011;63651;55.728;38.022;2023-05-20T20:38:19;2.88;;;2.03;;
75071;SDS011;63651;55.728;38.022;2023-05-20T20:43:21;3.50;;;2.13;;
75071;SDS011;63651;55.728;38.022;2023-05-20T20:48:22;4.15;;;2.58;;
75071;SDS011;63651;55.728;38.022;2023-05-20T20:53:26;3.42;;;1.98;;
75071;SDS011;63651;55.728;38.022;2023-05-20T20:58:27;3.03;;;2.22;;
75071;SDS011;63651;55.728;38.022;2023-05-20T21:03:29;3.85;;;1.98;;
75071;SDS011;63651;55.728;38.022;2023-05-20T21:08:30;2.47;;;2.03;;
75071;SDS011;63651;55.728;38.022;2023-05-20T21:13:31;2.60;;;1.83;;
75071;SDS011;63651;55.728;38.022;2023-05-20T21:18:32;3.80;;;1.90;;
75071;SDS011;63651;55.728;38.022;2023-05-20T21:23:34;3.10;;;2.00;;
75071;SDS011;63651;55.728;38.022;2023-05-20T21:28:35;3.35;;;2.08;;
75071;SDS011;63651;55.728;38.022;2023-05-20T21:33:36;3.35;;;2.47;;
75071;SDS011;63651;55.728;38.022;2023-05-20T21:38:37;2.28;;;2.05;;
75071;SDS011;63651;55.728;38.022;2023-05-20T21:43:38;2.88;;;2.05;;
75071;SDS011;63651;55.728;38.022;2023-05-20T21:48:39;4.93;;;2.47;;
75071;SDS011;63651;55.728;38.022;2023-05-20T21:53:40;2.90;;;1.83;;
75071;SDS011;63651;55.728;38.022;2023-05-20T21:58:41;2.35;;;2.05;;
75071;SDS011;63651;55.728;38.022;2023-05-20T22:03:42;3.80;;;2.17;;
75071;SDS011;63651;55.728;38.022;2023-05-20T22:08:47;2.90;;;2.15;;
75071;SDS011;63651;55.728;38.022;2023-05-20T22:13:48;2.53;;;1.70;;
75071;SDS011;63651;55.728;38.022;2023-05-20T22:18:49;4.60;;;1.90;;
75071;SDS011;63651;55.728;38.022;2023-05-20T22:23:53;5.00;;;2.00;;
75071;SDS011;63651;55.728;38.022;2023-05-20T22:28:54;2.25;;;1.80;;
75071;SDS011;63651;55.728;38.022;2023-05-20T22:33:55;3.35;;;2.03;;
75071;SDS011;63651;55.728;38.022;2023-05-20T22:38:56;2.55;;;2.35;;
75071;SDS011;63651;55.728;38.022;2023-05-20T22:43:57;3.10;;;2.00;;
75071;SDS011;63651;55.728;38.022;2023-05-20T22:48:58;3.05;;;2.10;;
75071;SDS011;63651;55.728;38.022;2023-05-20T22:54:01;3.28;;;2.28;;
75071;SDS011;63651;55.728;38.022;2023-05-20T22:59:02;2.60;;;2.33;;
75071;SDS011;63651;55.728;38.022;2023-05-20T23:04:03;3.15;;;2.10;;
75071;SDS011;63651;55.728;38.022;2023-05-20T23:09:04;2.70;;;2.00;;
75071;SDS011;63651;55.728;38.022;2023-05-20T23:14:06;2.42;;;1.98;;
75071;SDS011;63651;55.728;38.022;2023-05-20T23:19:08;2.28;;;1.92;;
75071;SDS011;63651;55.728;38.022;2023-05-20T23:24:09;3.03;;;1.92;;
75071;SDS011;63651;55.728;38.022;2023-05-20T23:29:11;2.45;;;2.08;;
75071;SDS011;63651;55.728;38.022;2023-05-20T23:34:12;2.80;;;2.03;;
75071;SDS011;63651;55.728;38.022;2023-05-20T23:39:13;2.97;;;2.20;;
75071;SDS011;63651;55.728;38.022;2023-05-20T23:44:15;2.22;;;2.03;;
75071;SDS011;63651;55.728;38.022;2023-05-20T23:49:16;2.35;;;2.15;;
75071;SDS011;63651;55.728;38.022;2023-05-20T23:54:18;2.83;;;1.48;;
75071;SDS011;63651;55.728;38.022;2023-05-20T23:59:19;2.67;;;1.98;;
